sensor_id;sensor_type;location;lat;lon;timestamp;P1;durP1;ratioP1;P2;durP2;ratioP2
81712;SDS011;71124;44.102;3.080;2023-09-12T00:00:03;7.50;;;6.20;;
81712;SDS011;71124;44.102;3.080;2023-09-12T00:02:30;8.95;;;6.00;;
81712;SDS011;71124;44.102;3.080;2023-09-12T00:04:55;7.72;;;6.15;;
81712;SDS011;71124;44.102;3.080;2023-09-12T00:07:20;7.87;;;6.30;;
81712;SDS011;71124;44.102;3.080;2023-09-12T00:09:46;7.97;;;6.00;;
81712;SDS011;71124;44.102;3.080;2023-09-12T00:12:14;7.57;;;6.17;;
81712;SDS011;71124;44.102;3.080;2023-09-12T00:14:39;8.70;;;6.40;;
81712;SDS011;71124;44.102;3.080;2023-09-12T00:17:04;7.87;;;6.57;;
81712;SDS011;71124;44.102;3.080;2023-09-12T00:19:30;7.80;;;6.13;;
81712;SDS011;71124;44.102;3.080;2023-09-12T00:21:55;6.97;;;5.75;;
81712;SDS011;71124;44.102;3.080;2023-09-12T00:24:20;7.00;;;5.87;;
81712;SDS011;71124;44.102;3.080;2023-09-12T00:26:46;8.13;;;5.60;;
81712;SDS011;71124;44.102;3.080;2023-09-12T00:29:11;6.00;;;5.30;;
81712;SDS011;71124;44.102;3.080;2023-09-12T00:31:36;7.13;;;5.35;;
81712;SDS011;71124;44.102;3.080;2023-09-12T00:34:02;6.10;;;5.20;;
81712;SDS011;71124;44.102;3.080;2023-09-12T00:36:27;6.80;;;4.97;;
81712;SDS011;71124;44.102;3.080;2023-09-12T00:38:52;7.63;;;4.93;;
81712;SDS011;71124;44.102;3.080;2023-09-12T00:41:17;5.97;;;5.37;;
81712;SDS011;71124;44.102;3.080;2023-09-12T00:43:43;5.88;;;5.20;;
81712;SDS011;71124;44.102;3.080;2023-09-12T00:46:08;6.47;;;5.47;;
81712;SDS011;71124;44.102;3.080;2023-09-12T00:48:33;8.50;;;5.10;;
81712;SDS011;71124;44.102;3.080;2023-09-12T00:50:59;7.15;;;5.43;;
81712;SDS011;71124;44.102;3.080;2023-09-12T00:53:24;7.43;;;5.40;;
81712;SDS011;71124;44.102;3.080;2023-09-12T00:55:51;6.20;;;5.00;;
81712;SDS011;71124;44.102;3.080;2023-09-12T00:58:21;6.55;;;4.75;;
81712;SDS011;71124;44.102;3.080;2023-09-12T01:00:46;6.93;;;5.10;;
81712;SDS011;71124;44.102;3.080;2023-09-12T01:03:12;5.38;;;4.60;;
81712;SDS011;71124;44.102;3.080;2023-09-12T01:05:37;5.70;;;4.55;;
81712;SDS011;71124;44.102;3.080;2023-09-12T01:08:03;7.23;;;4.27;;
81712;SDS011;71124;44.102;3.080;2023-09-12T01:10:28;5.75;;;4.50;;
81712;SDS011;71124;44.102;3.080;2023-09-12T01:12:53;5.37;;;4.33;;
81712;SDS011;71124;44.102;3.080;2023-09-12T01:15:19;5.10;;;4.50;;
81712;SDS011;71124;44.102;3.080;2023-09-12T01:17:44;6.03;;;4.37;;
81712;SDS011;71124;44.102;3.080;2023-09-12T01:20:17;4.45;;;3.97;;
81712;SDS011;71124;44.102;3.080;2023-09-12T01:27:50;5.13;;;4.57;;
81712;SDS011;71124;44.102;3.080;2023-09-12T01:30:20;4.85;;;4.00;;
81712;SDS011;71124;44.102;3.080;2023-09-12T01:32:45;4.75;;;4.20;;
81712;SDS011;71124;44.102;3.080;2023-09-12T01:35:11;6.20;;;4.50;;
81712;SDS011;71124;44.102;3.080;2023-09-12T01:37:36;5.77;;;4.27;;
81712;SDS011;71124;44.102;3.080;2023-09-12T01:40:02;6.40;;;4.93;;
81712;SDS011;71124;44.102;3.080;2023-09-12T01:42:30;5.38;;;4.25;;
81712;SDS011;71124;44.102;3.080;2023-09-12T01:44:56;5.50;;;4.80;;
81712;SDS011;71124;44.102;3.080;2023-09-12T01:47:22;5.47;;;4.38;;
81712;SDS011;71124;44.102;3.080;2023-09-12T01:49:49;6.38;;;4.78;;
81712;SDS011;71124;44.102;3.080;2023-09-12T01:52:16;5.40;;;4.68;;
81712;SDS011;71124;44.102;3.080;2023-09-12T01:54:42;6.13;;;4.80;;
81712;SDS011;71124;44.102;3.080;2023-09-12T01:57:07;5.35;;;4.38;;
81712;SDS011;71124;44.102;3.080;2023-09-12T01:59:33;4.80;;;4.30;;
81712;SDS011;71124;44.102;3.080;2023-09-12T02:01:58;4.80;;;4.25;;
81712;SDS011;71124;44.102;3.080;2023-09-12T02:04:24;5.67;;;4.67;;
81712;SDS011;71124;44.102;3.080;2023-09-12T02:06:49;4.77;;;4.27;;
81712;SDS011;71124;44.102;3.080;2023-09-12T02:09:14;4.60;;;4.10;;
81712;SDS011;71124;44.102;3.080;2023-09-12T02:11:39;6.00;;;4.60;;
81712;SDS011;71124;44.102;3.080;2023-09-12T02:14:05;5.97;;;4.13;;
81712;SDS011;71124;44.102;3.080;2023-09-12T02:16:31;5.63;;;4.00;;
81712;SDS011;71124;44.102;3.080;2023-09-12T02:18:56;5.32;;;4.00;;
81712;SDS011;71124;44.102;3.080;2023-09-12T02:21:21;5.43;;;4.20;;
81712;SDS011;71124;44.102;3.080;2023-09-12T02:23:47;5.13;;;4.30;;
81712;SDS011;71124;44.102;3.080;2023-09-12T02:26:12;4.30;;;3.90;;
81712;SDS011;71124;44.102;3.080;2023-09-12T02:28:37;5.30;;;3.67;;
81712;SDS011;71124;44.102;3.080;2023-09-12T02:31:02;4.87;;;4.10;;
81712;SDS011;71124;44.102;3.080;2023-09-12T02:33:28;4.60;;;3.70;;
81712;SDS011;71124;44.102;3.080;2023-09-12T02:35:53;4.70;;;3.72;;
81712;SDS011;71124;44.102;3.080;2023-09-12T02:38:18;4.33;;;3.70;;
81712;SDS011;71124;44.102;3.080;2023-09-12T02:40:44;4.15;;;3.30;;
81712;SDS011;71124;44.102;3.080;2023-09-12T02:43:09;4.63;;;3.40;;
81712;SDS011;71124;44.102;3.080;2023-09-12T02:45:34;5.77;;;3.93;;
81712;SDS011;71124;44.102;3.080;2023-09-12T02:47:59;5.57;;;3.83;;
81712;SDS011;71124;44.102;3.080;2023-09-12T02:50:25;3.70;;;3.30;;
81712;SDS011;71124;44.102;3.080;2023-09-12T02:52:50;5.30;;;3.17;;
81712;SDS011;71124;44.102;3.080;2023-09-12T02:55:15;3.53;;;3.20;;
81712;SDS011;71124;44.102;3.080;2023-09-12T02:57:40;3.80;;;3.40;;
81712;SDS011;71124;44.102;3.080;2023-09-12T03:00:06;3.80;;;3.40;;
81712;SDS011;71124;44.102;3.080;2023-09-12T03:02:33;4.70;;;3.58;;
81712;SDS011;71124;44.102;3.080;2023-09-12T03:04:58;4.15;;;3.67;;
81712;SDS011;71124;44.102;3.080;2023-09-12T03:07:24;5.30;;;3.50;;
81712;SDS011;71124;44.102;3.080;2023-09-12T03:09:49;4.13;;;3.73;;
81712;SDS011;71124;44.102;3.080;2023-09-12T03:12:17;5.60;;;3.63;;
81712;SDS011;71124;44.102;3.080;2023-09-12T03:14:42;3.70;;;3.30;;
81712;SDS011;71124;44.102;3.080;2023-09-12T03:17:07;5.30;;;3.97;;
81712;SDS011;71124;44.102;3.080;2023-09-12T03:19:33;4.47;;;3.77;;
81712;SDS011;71124;44.102;3.080;2023-09-12T03:21:58;5.00;;;3.90;;
81712;SDS011;71124;44.102;3.080;2023-09-12T03:24:23;4.05;;;3.60;;
81712;SDS011;71124;44.102;3.080;2023-09-12T03:26:50;4.07;;;3.67;;
81712;SDS011;71124;44.102;3.080;2023-09-12T03:29:15;6.20;;;3.70;;
81712;SDS011;71124;44.102;3.080;2023-09-12T03:31:40;4.03;;;3.50;;
81712;SDS011;71124;44.102;3.080;2023-09-12T03:34:06;4.22;;;3.60;;
81712;SDS011;71124;44.102;3.080;2023-09-12T03:36:31;4.13;;;3.40;;
81712;SDS011;71124;44.102;3.080;2023-09-12T03:38:56;5.30;;;3.63;;
81712;SDS011;71124;44.102;3.080;2023-09-12T03:41:21;4.07;;;3.60;;
81712;SDS011;71124;44.102;3.080;2023-09-12T03:43:53;4.00;;;3.20;;
81712;SDS011;71124;44.102;3.080;2023-09-12T03:46:19;4.65;;;3.30;;
81712;SDS011;71124;44.102;3.080;2023-09-12T03:48:45;4.07;;;3.35;;
81712;SDS011;71124;44.102;3.080;2023-09-12T03:51:11;4.15;;;3.45;;
81712;SDS011;71124;44.102;3.080;2023-09-12T03:53:36;4.22;;;3.28;;
81712;SDS011;71124;44.102;3.080;2023-09-12T03:56:01;3.77;;;3.13;;
81712;SDS011;71124;44.102;3.080;2023-09-12T03:58:27;3.53;;;3.05;;
81712;SDS011;71124;44.102;3.080;2023-09-12T04:00:52;4.27;;;3.17;;
81712;SDS011;71124;44.102;3.080;2023-09-12T04:03:17;4.63;;;3.65;;
81712;SDS011;71124;44.102;3.080;2023-09-12T04:05:43;4.38;;;3.10;;
81712;SDS011;71124;44.102;3.080;2023-09-12T04:08:08;4.90;;;3.50;;
81712;SDS011;71124;44.102;3.080;2023-09-12T04:10:33;6.60;;;3.63;;
81712;SDS011;71124;44.102;3.080;2023-09-12T04:12:58;6.33;;;3.40;;
81712;SDS011;71124;44.102;3.080;2023-09-12T04:15:23;4.07;;;3.67;;
81712;SDS011;71124;44.102;3.080;2023-09-12T04:17:49;5.40;;;3.57;;
81712;SDS011;71124;44.102;3.080;2023-09-12T04:20:14;4.63;;;3.50;;
81712;SDS011;71124;44.102;3.080;2023-09-12T04:22:40;6.90;;;3.22;;
81712;SDS011;71124;44.102;3.080;2023-09-12T04:25:06;5.20;;;3.42;;
81712;SDS011;71124;44.102;3.080;2023-09-12T04:27:31;4.63;;;3.50;;
81712;SDS011;71124;44.102;3.080;2023-09-12T04:29:56;4.30;;;3.23;;
81712;SDS011;71124;44.102;3.080;2023-09-12T04:32:21;4.77;;;3.40;;
81712;SDS011;71124;44.102;3.080;2023-09-12T04:34:48;4.78;;;3.30;;
81712;SDS011;71124;44.102;3.080;2023-09-12T04:37:14;4.20;;;3.38;;
81712;SDS011;71124;44.102;3.080;2023-09-12T04:39:39;4.90;;;3.27;;
81712;SDS011;71124;44.102;3.080;2023-09-12T04:42:04;3.93;;;3.53;;
81712;SDS011;71124;44.102;3.080;2023-09-12T04:44:34;4.00;;;3.60;;
81712;SDS011;71124;44.102;3.080;2023-09-12T04:46:59;4.25;;;3.30;;
81712;SDS011;71124;44.102;3.080;2023-09-12T04:49:24;3.97;;;3.03;;
81712;SDS011;71124;44.102;3.080;2023-09-12T04:51:49;3.80;;;3.40;;
81712;SDS011;71124;44.102;3.080;2023-09-12T04:54:15;3.50;;;3.20;;
81712;SDS011;71124;44.102;3.080;2023-09-12T04:56:40;3.42;;;3.13;;
81712;SDS011;71124;44.102;3.080;2023-09-12T04:59:05;4.13;;;3.33;;
81712;SDS011;71124;44.102;3.080;2023-09-12T05:01:31;3.55;;;3.22;;
81712;SDS011;71124;44.102;3.080;2023-09-12T05:03:57;4.03;;;3.22;;
81712;SDS011;71124;44.102;3.080;2023-09-12T05:06:22;3.50;;;3.20;;
81712;SDS011;71124;44.102;3.080;2023-09-12T05:08:47;4.97;;;3.65;;
81712;SDS011;71124;44.102;3.080;2023-09-12T05:11:13;3.80;;;3.30;;
81712;SDS011;71124;44.102;3.080;2023-09-12T05:13:38;4.57;;;3.73;;
81712;SDS011;71124;44.102;3.080;2023-09-12T05:16:03;4.13;;;3.50;;
81712;SDS011;71124;44.102;3.080;2023-09-12T05:18:28;5.50;;;3.60;;
81712;SDS011;71124;44.102;3.080;2023-09-12T05:20:54;5.57;;;3.50;;
81712;SDS011;71124;44.102;3.080;2023-09-12T05:23:19;6.37;;;4.30;;
81712;SDS011;71124;44.102;3.080;2023-09-12T05:25:44;5.30;;;3.83;;
81712;SDS011;71124;44.102;3.080;2023-09-12T05:28:10;4.90;;;4.07;;
81712;SDS011;71124;44.102;3.080;2023-09-12T05:30:35;5.43;;;3.90;;
81712;SDS011;71124;44.102;3.080;2023-09-12T05:33:01;6.30;;;3.70;;
81712;SDS011;71124;44.102;3.080;2023-09-12T05:35:26;4.85;;;3.88;;
81712;SDS011;71124;44.102;3.080;2023-09-12T05:37:52;5.63;;;3.40;;
81712;SDS011;71124;44.102;3.080;2023-09-12T05:40:17;4.53;;;3.50;;
81712;SDS011;71124;44.102;3.080;2023-09-12T05:42:43;5.45;;;3.80;;
81712;SDS011;71124;44.102;3.080;2023-09-12T05:45:08;5.72;;;3.53;;
81712;SDS011;71124;44.102;3.080;2023-09-12T05:47:33;4.13;;;3.53;;
81712;SDS011;71124;44.102;3.080;2023-09-12T05:49:59;5.30;;;3.47;;
81712;SDS011;71124;44.102;3.080;2023-09-12T05:52:25;4.88;;;3.80;;
81712;SDS011;71124;44.102;3.080;2023-09-12T05:54:51;6.67;;;3.40;;
81712;SDS011;71124;44.102;3.080;2023-09-12T05:57:16;5.90;;;3.43;;
81712;SDS011;71124;44.102;3.080;2023-09-12T05:59:41;4.60;;;3.30;;
81712;SDS011;71124;44.102;3.080;2023-09-12T06:02:07;5.10;;;3.47;;
81712;SDS011;71124;44.102;3.080;2023-09-12T06:04:34;4.68;;;3.47;;
81712;SDS011;71124;44.102;3.080;2023-09-12T06:07:01;4.68;;;3.53;;
81712;SDS011;71124;44.102;3.080;2023-09-12T06:09:26;4.95;;;3.55;;
81712;SDS011;71124;44.102;3.080;2023-09-12T06:11:51;6.80;;;3.60;;
81712;SDS011;71124;44.102;3.080;2023-09-12T06:14:17;7.50;;;3.50;;
81712;SDS011;71124;44.102;3.080;2023-09-12T06:16:42;5.05;;;3.70;;
81712;SDS011;71124;44.102;3.080;2023-09-12T06:19:07;5.70;;;3.43;;
81712;SDS011;71124;44.102;3.080;2023-09-12T06:21:33;9.30;;;3.45;;
81712;SDS011;71124;44.102;3.080;2023-09-12T06:24:08;4.47;;;3.13;;
81712;SDS011;71124;44.102;3.080;2023-09-12T06:26:33;7.22;;;3.50;;
81712;SDS011;71124;44.102;3.080;2023-09-12T06:28:59;5.90;;;3.20;;
81712;SDS011;71124;44.102;3.080;2023-09-12T06:31:24;5.93;;;2.90;;
81712;SDS011;71124;44.102;3.080;2023-09-12T06:33:49;6.57;;;3.50;;
81712;SDS011;71124;44.102;3.080;2023-09-12T06:36:14;9.97;;;3.43;;
81712;SDS011;71124;44.102;3.080;2023-09-12T06:38:40;10.20;;;3.77;;
81712;SDS011;71124;44.102;3.080;2023-09-12T06:41:05;9.07;;;3.83;;
81712;SDS011;71124;44.102;3.080;2023-09-12T06:43:30;13.17;;;3.60;;
81712;SDS011;71124;44.102;3.080;2023-09-12T06:45:55;10.53;;;4.07;;
81712;SDS011;71124;44.102;3.080;2023-09-12T06:48:21;13.50;;;3.90;;
81712;SDS011;71124;44.102;3.080;2023-09-12T06:50:46;10.40;;;3.73;;
81712;SDS011;71124;44.102;3.080;2023-09-12T06:53:11;6.50;;;3.60;;
81712;SDS011;71124;44.102;3.080;2023-09-12T06:55:36;7.33;;;3.80;;
81712;SDS011;71124;44.102;3.080;2023-09-12T06:58:02;5.80;;;3.83;;
81712;SDS011;71124;44.102;3.080;2023-09-12T07:00:28;7.22;;;3.85;;
81712;SDS011;71124;44.102;3.080;2023-09-12T07:02:53;6.65;;;3.78;;
81712;SDS011;71124;44.102;3.080;2023-09-12T07:05:19;5.28;;;3.83;;
81712;SDS011;71124;44.102;3.080;2023-09-12T07:07:44;4.37;;;3.60;;
81712;SDS011;71124;44.102;3.080;2023-09-12T07:10:09;9.43;;;3.70;;
81712;SDS011;71124;44.102;3.080;2023-09-12T07:12:34;6.27;;;4.03;;
81712;SDS011;71124;44.102;3.080;2023-09-12T07:15:00;5.63;;;3.90;;
81712;SDS011;71124;44.102;3.080;2023-09-12T07:17:27;10.55;;;4.10;;
81712;SDS011;71124;44.102;3.080;2023-09-12T07:19:52;7.93;;;4.30;;
81712;SDS011;71124;44.102;3.080;2023-09-12T07:22:17;8.10;;;3.90;;
81712;SDS011;71124;44.102;3.080;2023-09-12T07:24:43;6.53;;;3.97;;
81712;SDS011;71124;44.102;3.080;2023-09-12T07:27:08;8.63;;;4.30;;
81712;SDS011;71124;44.102;3.080;2023-09-12T07:29:33;9.30;;;3.80;;
81712;SDS011;71124;44.102;3.080;2023-09-12T07:31:58;15.37;;;8.27;;
81712;SDS011;71124;44.102;3.080;2023-09-12T07:34:24;15.43;;;5.17;;
81712;SDS011;71124;44.102;3.080;2023-09-12T07:36:49;13.32;;;4.22;;
81712;SDS011;71124;44.102;3.080;2023-09-12T07:39:16;9.85;;;4.15;;
81712;SDS011;71124;44.102;3.080;2023-09-12T07:41:41;6.82;;;3.75;;
81712;SDS011;71124;44.102;3.080;2023-09-12T07:44:06;9.33;;;4.20;;
81712;SDS011;71124;44.102;3.080;2023-09-12T07:46:35;8.60;;;3.92;;
81712;SDS011;71124;44.102;3.080;2023-09-12T07:49:01;9.93;;;3.87;;
81712;SDS011;71124;44.102;3.080;2023-09-12T07:51:26;11.60;;;4.83;;
81712;SDS011;71124;44.102;3.080;2023-09-12T07:53:51;12.23;;;4.83;;
81712;SDS011;71124;44.102;3.080;2023-09-12T07:56:16;7.47;;;3.57;;
81712;SDS011;71124;44.102;3.080;2023-09-12T07:58:42;8.53;;;5.23;;
81712;SDS011;71124;44.102;3.080;2023-09-12T08:01:08;8.65;;;4.82;;
81712;SDS011;71124;44.102;3.080;2023-09-12T08:03:34;7.20;;;4.22;;
81712;SDS011;71124;44.102;3.080;2023-09-12T08:05:59;8.05;;;4.82;;
81712;SDS011;71124;44.102;3.080;2023-09-12T08:08:25;5.03;;;3.88;;
81712;SDS011;71124;44.102;3.080;2023-09-12T08:10:50;8.37;;;4.27;;
81712;SDS011;71124;44.102;3.080;2023-09-12T08:13:15;7.23;;;4.20;;
81712;SDS011;71124;44.102;3.080;2023-09-12T08:15:41;10.53;;;4.83;;
81712;SDS011;71124;44.102;3.080;2023-09-12T08:18:06;6.13;;;3.67;;
81712;SDS011;71124;44.102;3.080;2023-09-12T08:20:31;7.50;;;3.60;;
81712;SDS011;71124;44.102;3.080;2023-09-12T08:22:56;3.70;;;3.10;;
81712;SDS011;71124;44.102;3.080;2023-09-12T08:25:22;5.33;;;3.20;;
81712;SDS011;71124;44.102;3.080;2023-09-12T08:27:47;4.80;;;3.30;;
81712;SDS011;71124;44.102;3.080;2023-09-12T08:30:12;6.63;;;3.47;;
81712;SDS011;71124;44.102;3.080;2023-09-12T08:32:38;4.68;;;3.10;;
81712;SDS011;71124;44.102;3.080;2023-09-12T08:35:12;6.07;;;3.40;;
81712;SDS011;71124;44.102;3.080;2023-09-12T08:37:38;6.03;;;3.30;;
81712;SDS011;71124;44.102;3.080;2023-09-12T08:40:05;7.07;;;3.60;;
81712;SDS011;71124;44.102;3.080;2023-09-12T08:42:32;5.72;;;3.47;;
81712;SDS011;71124;44.102;3.080;2023-09-12T08:45:01;7.80;;;3.42;;
81712;SDS011;71124;44.102;3.080;2023-09-12T08:47:26;5.43;;;3.58;;
81712;SDS011;71124;44.102;3.080;2023-09-12T08:49:51;5.47;;;3.50;;
81712;SDS011;71124;44.102;3.080;2023-09-12T08:52:17;5.73;;;3.50;;
81712;SDS011;71124;44.102;3.080;2023-09-12T08:54:42;5.47;;;3.40;;
81712;SDS011;71124;44.102;3.080;2023-09-12T08:57:07;4.90;;;3.60;;
81712;SDS011;71124;44.102;3.080;2023-09-12T08:59:34;4.95;;;3.13;;
81712;SDS011;71124;44.102;3.080;2023-09-12T09:02:00;6.20;;;3.40;;
81712;SDS011;71124;44.102;3.080;2023-09-12T09:04:26;5.90;;;3.33;;
81712;SDS011;71124;44.102;3.080;2023-09-12T09:06:53;5.93;;;3.70;;
81712;SDS011;71124;44.102;3.080;2023-09-12T09:09:19;5.82;;;3.33;;
81712;SDS011;71124;44.102;3.080;2023-09-12T09:11:46;5.47;;;3.38;;
81712;SDS011;71124;44.102;3.080;2023-09-12T09:14:11;4.67;;;3.27;;
81712;SDS011;71124;44.102;3.080;2023-09-12T09:16:36;5.87;;;3.53;;
81712;SDS011;71124;44.102;3.080;2023-09-12T09:19:03;6.68;;;4.05;;
81712;SDS011;71124;44.102;3.080;2023-09-12T09:21:31;7.43;;;3.60;;
81712;SDS011;71124;44.102;3.080;2023-09-12T09:24:01;6.70;;;3.30;;
81712;SDS011;71124;44.102;3.080;2023-09-12T09:26:40;5.43;;;3.40;;
81712;SDS011;71124;44.102;3.080;2023-09-12T09:29:07;7.35;;;3.33;;
81712;SDS011;71124;44.102;3.080;2023-09-12T09:31:33;4.30;;;2.97;;
81712;SDS011;71124;44.102;3.080;2023-09-12T09:33:59;5.38;;;3.50;;
81712;SDS011;71124;44.102;3.080;2023-09-12T09:36:24;5.33;;;3.57;;
81712;SDS011;71124;44.102;3.080;2023-09-12T09:38:50;5.50;;;3.55;;
81712;SDS011;71124;44.102;3.080;2023-09-12T09:41:15;5.33;;;3.60;;
81712;SDS011;71124;44.102;3.080;2023-09-12T09:43:40;7.10;;;3.67;;
81712;SDS011;71124;44.102;3.080;2023-09-12T09:46:05;7.77;;;3.30;;
81712;SDS011;71124;44.102;3.080;2023-09-12T09:48:31;4.70;;;3.90;;
81712;SDS011;71124;44.102;3.080;2023-09-12T09:51:03;4.47;;;3.08;;
81712;SDS011;71124;44.102;3.080;2023-09-12T09:53:29;5.23;;;3.57;;
81712;SDS011;71124;44.102;3.080;2023-09-12T09:56:13;4.85;;;3.38;;
81712;SDS011;71124;44.102;3.080;2023-09-12T09:58:57;6.40;;;3.70;;
81712;SDS011;71124;44.102;3.080;2023-09-12T10:01:23;4.68;;;3.42;;
81712;SDS011;71124;44.102;3.080;2023-09-12T10:03:52;4.68;;;3.47;;
81712;SDS011;71124;44.102;3.080;2023-09-12T10:06:18;3.70;;;3.25;;
81712;SDS011;71124;44.102;3.080;2023-09-12T10:08:44;5.55;;;3.55;;
81712;SDS011;71124;44.102;3.080;2023-09-12T10:11:11;5.80;;;3.58;;
81712;SDS011;71124;44.102;3.080;2023-09-12T10:13:37;5.28;;;3.22;;
81712;SDS011;71124;44.102;3.080;2023-09-12T10:16:03;3.92;;;3.47;;
81712;SDS011;71124;44.102;3.080;2023-09-12T10:18:29;4.78;;;3.25;;
81712;SDS011;71124;44.102;3.080;2023-09-12T10:21:03;4.75;;;3.40;;
81712;SDS011;71124;44.102;3.080;2023-09-12T10:23:30;5.03;;;3.42;;
81712;SDS011;71124;44.102;3.080;2023-09-12T10:28:27;3.33;;;3.03;;
81712;SDS011;71124;44.102;3.080;2023-09-12T10:30:52;4.28;;;3.40;;
81712;SDS011;71124;44.102;3.080;2023-09-12T10:33:18;3.63;;;3.33;;
81712;SDS011;71124;44.102;3.080;2023-09-12T10:35:44;4.35;;;3.10;;
81712;SDS011;71124;44.102;3.080;2023-09-12T10:38:10;4.22;;;3.22;;
81712;SDS011;71124;44.102;3.080;2023-09-12T10:40:39;3.90;;;3.50;;
81712;SDS011;71124;44.102;3.080;2023-09-12T10:43:04;4.82;;;3.47;;
81712;SDS011;71124;44.102;3.080;2023-09-12T10:45:33;5.13;;;3.38;;
81712;SDS011;71124;44.102;3.080;2023-09-12T10:47:58;6.60;;;3.90;;
81712;SDS011;71124;44.102;3.080;2023-09-12T10:50:24;6.18;;;4.47;;
81712;SDS011;71124;44.102;3.080;2023-09-12T10:52:49;6.20;;;3.70;;
81712;SDS011;71124;44.102;3.080;2023-09-12T10:55:17;5.60;;;4.10;;
81712;SDS011;71124;44.102;3.080;2023-09-12T11:00:27;5.80;;;3.33;;
81712;SDS011;71124;44.102;3.080;2023-09-12T11:02:53;4.27;;;3.40;;
81712;SDS011;71124;44.102;3.080;2023-09-12T11:07:56;5.28;;;3.00;;
81712;SDS011;71124;44.102;3.080;2023-09-12T11:10:21;4.68;;;3.33;;
81712;SDS011;71124;44.102;3.080;2023-09-12T11:12:48;5.55;;;3.28;;
81712;SDS011;71124;44.102;3.080;2023-09-12T11:15:14;5.63;;;3.30;;
81712;SDS011;71124;44.102;3.080;2023-09-12T11:17:43;6.20;;;3.50;;
81712;SDS011;71124;44.102;3.080;2023-09-12T11:20:09;4.70;;;3.40;;
81712;SDS011;71124;44.102;3.080;2023-09-12T11:25:05;4.65;;;3.17;;
81712;SDS011;71124;44.102;3.080;2023-09-12T11:27:31;4.07;;;3.60;;
81712;SDS011;71124;44.102;3.080;2023-09-12T11:30:03;4.30;;;3.22;;
81712;SDS011;71124;44.102;3.080;2023-09-12T11:32:31;5.43;;;3.97;;
81712;SDS011;71124;44.102;3.080;2023-09-12T11:34:56;4.78;;;3.47;;
81712;SDS011;71124;44.102;3.080;2023-09-12T11:37:22;5.05;;;3.85;;
81712;SDS011;71124;44.102;3.080;2023-09-12T11:39:48;15.00;;;9.27;;
81712;SDS011;71124;44.102;3.080;2023-09-12T11:42:15;8.15;;;5.55;;
81712;SDS011;71124;44.102;3.080;2023-09-12T11:44:40;5.43;;;4.28;;
81712;SDS011;71124;44.102;3.080;2023-09-12T11:47:06;5.00;;;3.90;;
81712;SDS011;71124;44.102;3.080;2023-09-12T11:49:37;5.95;;;3.80;;
81712;SDS011;71124;44.102;3.080;2023-09-12T11:52:03;4.95;;;4.20;;
81712;SDS011;71124;44.102;3.080;2023-09-12T11:54:29;7.10;;;3.90;;
81712;SDS011;71124;44.102;3.080;2023-09-12T11:56:54;4.25;;;3.60;;
81712;SDS011;71124;44.102;3.080;2023-09-12T11:59:22;7.55;;;4.72;;
81712;SDS011;71124;44.102;3.080;2023-09-12T12:01:47;8.45;;;5.53;;
81712;SDS011;71124;44.102;3.080;2023-09-12T12:04:13;7.40;;;4.00;;
81712;SDS011;71124;44.102;3.080;2023-09-12T12:06:38;6.30;;;3.47;;
81712;SDS011;71124;44.102;3.080;2023-09-12T12:09:03;5.40;;;3.87;;
81712;SDS011;71124;44.102;3.080;2023-09-12T12:11:29;5.38;;;3.70;;
81712;SDS011;71124;44.102;3.080;2023-09-12T12:13:55;7.40;;;3.60;;
81712;SDS011;71124;44.102;3.080;2023-09-12T12:16:20;6.60;;;3.80;;
81712;SDS011;71124;44.102;3.080;2023-09-12T12:18:45;4.78;;;3.47;;
81712;SDS011;71124;44.102;3.080;2023-09-12T12:21:11;5.00;;;3.70;;
81712;SDS011;71124;44.102;3.080;2023-09-12T12:23:36;5.60;;;3.50;;
81712;SDS011;71124;44.102;3.080;2023-09-12T12:26:08;5.87;;;3.50;;
81712;SDS011;71124;44.102;3.080;2023-09-12T12:28:34;5.53;;;3.60;;
81712;SDS011;71124;44.102;3.080;2023-09-12T12:31:00;3.92;;;3.53;;
81712;SDS011;71124;44.102;3.080;2023-09-12T12:33:25;6.20;;;3.83;;
81712;SDS011;71124;44.102;3.080;2023-09-12T12:35:58;3.93;;;3.53;;
81712;SDS011;71124;44.102;3.080;2023-09-12T12:38:24;7.43;;;3.55;;
81712;SDS011;71124;44.102;3.080;2023-09-12T12:40:49;5.33;;;3.53;;
81712;SDS011;71124;44.102;3.080;2023-09-12T12:43:17;6.43;;;5.73;;
81712;SDS011;71124;44.102;3.080;2023-09-12T12:45:53;5.05;;;3.67;;
81712;SDS011;71124;44.102;3.080;2023-09-12T12:48:28;6.82;;;4.00;;
81712;SDS011;71124;44.102;3.080;2023-09-12T12:50:54;5.63;;;3.92;;
81712;SDS011;71124;44.102;3.080;2023-09-12T12:53:36;5.13;;;3.50;;
81712;SDS011;71124;44.102;3.080;2023-09-12T12:56:01;9.13;;;4.28;;
81712;SDS011;71124;44.102;3.080;2023-09-12T12:58:27;3.95;;;3.55;;
81712;SDS011;71124;44.102;3.080;2023-09-12T13:00:52;8.17;;;3.60;;
81712;SDS011;71124;44.102;3.080;2023-09-12T13:03:17;6.50;;;4.10;;
81712;SDS011;71124;44.102;3.080;2023-09-12T13:05:43;6.33;;;4.13;;
81712;SDS011;71124;44.102;3.080;2023-09-12T13:08:08;7.03;;;3.70;;
81712;SDS011;71124;44.102;3.080;2023-09-12T13:10:33;5.30;;;4.30;;
81712;SDS011;71124;44.102;3.080;2023-09-12T13:12:58;4.63;;;3.53;;
81712;SDS011;71124;44.102;3.080;2023-09-12T13:15:24;5.87;;;3.80;;
81712;SDS011;71124;44.102;3.080;2023-09-12T13:17:49;6.47;;;3.90;;
81712;SDS011;71124;44.102;3.080;2023-09-12T13:20:14;8.23;;;3.90;;
81712;SDS011;71124;44.102;3.080;2023-09-12T13:22:40;9.70;;;3.87;;
81712;SDS011;71124;44.102;3.080;2023-09-12T13:25:05;5.93;;;4.57;;
81712;SDS011;71124;44.102;3.080;2023-09-12T13:27:31;14.05;;;7.65;;
81712;SDS011;71124;44.102;3.080;2023-09-12T13:29:56;9.40;;;4.80;;
81712;SDS011;71124;44.102;3.080;2023-09-12T13:32:21;5.83;;;4.50;;
81712;SDS011;71124;44.102;3.080;2023-09-12T13:34:46;8.23;;;4.23;;
81712;SDS011;71124;44.102;3.080;2023-09-12T13:37:12;7.43;;;4.50;;
81712;SDS011;71124;44.102;3.080;2023-09-12T13:39:37;9.00;;;4.93;;
81712;SDS011;71124;44.102;3.080;2023-09-12T13:42:02;12.37;;;5.80;;
81712;SDS011;71124;44.102;3.080;2023-09-12T13:44:29;8.63;;;5.53;;
81712;SDS011;71124;44.102;3.080;2023-09-12T13:46:54;9.27;;;5.35;;
81712;SDS011;71124;44.102;3.080;2023-09-12T13:49:20;8.47;;;5.50;;
81712;SDS011;71124;44.102;3.080;2023-09-12T13:51:45;8.60;;;5.47;;
81712;SDS011;71124;44.102;3.080;2023-09-12T13:54:10;11.90;;;5.03;;
81712;SDS011;71124;44.102;3.080;2023-09-12T13:56:40;6.55;;;4.50;;
81712;SDS011;71124;44.102;3.080;2023-09-12T13:59:05;8.18;;;4.20;;
81712;SDS011;71124;44.102;3.080;2023-09-12T14:01:31;9.82;;;4.95;;
81712;SDS011;71124;44.102;3.080;2023-09-12T14:03:57;8.03;;;4.80;;
81712;SDS011;71124;44.102;3.080;2023-09-12T14:06:22;9.77;;;4.50;;
81712;SDS011;71124;44.102;3.080;2023-09-12T14:08:47;8.57;;;4.63;;
81712;SDS011;71124;44.102;3.080;2023-09-12T14:11:12;10.23;;;4.67;;
81712;SDS011;71124;44.102;3.080;2023-09-12T14:13:38;9.80;;;4.63;;
81712;SDS011;71124;44.102;3.080;2023-09-12T14:16:03;6.90;;;4.50;;
81712;SDS011;71124;44.102;3.080;2023-09-12T14:18:28;7.45;;;4.72;;
81712;SDS011;71124;44.102;3.080;2023-09-12T14:20:54;8.53;;;4.40;;
81712;SDS011;71124;44.102;3.080;2023-09-12T14:23:19;8.35;;;4.60;;
81712;SDS011;71124;44.102;3.080;2023-09-12T14:25:46;9.23;;;4.90;;
81712;SDS011;71124;44.102;3.080;2023-09-12T14:28:11;10.33;;;4.57;;
81712;SDS011;71124;44.102;3.080;2023-09-12T14:30:36;6.50;;;4.53;;
81712;SDS011;71124;44.102;3.080;2023-09-12T14:33:03;7.00;;;4.50;;
81712;SDS011;71124;44.102;3.080;2023-09-12T14:35:28;8.82;;;4.88;;
81712;SDS011;71124;44.102;3.080;2023-09-12T14:37:53;8.43;;;4.57;;
81712;SDS011;71124;44.102;3.080;2023-09-12T14:40:19;7.90;;;4.70;;
81712;SDS011;71124;44.102;3.080;2023-09-12T14:42:44;9.87;;;4.90;;
81712;SDS011;71124;44.102;3.080;2023-09-12T14:45:09;5.30;;;4.67;;
81712;SDS011;71124;44.102;3.080;2023-09-12T14:47:35;6.93;;;4.88;;
81712;SDS011;71124;44.102;3.080;2023-09-12T14:50:01;8.73;;;4.75;;
81712;SDS011;71124;44.102;3.080;2023-09-12T14:52:26;9.00;;;4.33;;
81712;SDS011;71124;44.102;3.080;2023-09-12T14:54:52;10.05;;;4.60;;